Change the Weather History Date:

Wednesday, March 26, 2014

  Actual Average (KLJF) Record (KLJF)
Temperature  
Mean Temperature 30 °F -  
Max Temperature 48 °F 45 °F 78 °F (2007)
Min Temperature 12 °F 24 °F -9 °F (1965)
Degree Days  
Heating Degree Days 35    
Moisture  
Dew Point 19 °F    
Average Humidity 60    
Maximum Humidity 79    
Minimum Humidity 39    
Precipitation  
Precipitation 0.00 in - - ()
Sea Level Pressure  
Sea Level Pressure 29.77 in    
Wind  
Wind Speed 13 mph (SE)    
Max Wind Speed 30 mph    
Max Gust Speed 39 mph    
Visibility 10 miles    
Events      
Averages and records for this station are not official NWS values.
T = Trace of Precipitation, MM = Missing Value Source: NWS Daily Summary

Daily Weather History Graph

Daily Weather History Graph

Search for Another Location

Airport or City:

Trip Planner

Search our weather history database for the weather conditions in past years. The results will help you decide how hot, cold, wet, or windy it might be!

Date:

Astronomy

Mar. 26, 2014 Rise Set
Actual Time 7:12 AM CDT 7:40 PM CDT
Civil Twilight 6:42 AM CDT 8:10 PM CDT
Nautical Twilight 6:07 AM CDT 8:45 PM CDT
Astronomical Twilight 5:32 AM CDT 9:21 PM CDT
Moon 4:33 AM CDT (3/26) 3:09 PM CDT (3/26)
Length of Visible Light 13h 27m
Length of Day
12h 28m
Waning Crescent, 21% of the Moon is Illuminated
Mar 26
Waning Crescent
Mar 30
New
Apr 7
First Quarter
Apr 15
Full
Apr 22
Last Quarter

Hourly Weather History & Observations

Time (CDT) Temp. Windchill Dew Point Humidity Pressure Visibility Wind Dir Wind Speed Gust Speed Precip Events Conditions
12:15 AM 15.8 °F 8.6 °F 8.6 °F 73% 30.11 in 10.0 mi ESE 4.6 mph - N/A   Clear
12:35 AM 14.0 °F 8.2 °F 8.6 °F 79% 30.10 in 10.0 mi ESE 3.5 mph - N/A   Clear
12:56 AM 14.0 °F 8.2 °F 8.6 °F 79% 30.10 in 10.0 mi SE 3.5 mph - N/A   Clear
1:15 AM 14.0 °F 6.5 °F 8.6 °F 79% 30.09 in 10.0 mi SE 4.6 mph - N/A   Clear
1:35 AM 12.2 °F 2.9 °F 6.8 °F 79% 30.08 in 10.0 mi SE 5.8 mph - N/A   Clear
1:56 AM 14.0 °F 5.1 °F 8.6 °F 79% 30.08 in 10.0 mi ESE 5.8 mph - N/A   Clear
2:15 AM 15.8 °F 5.1 °F 8.6 °F 73% 30.07 in 10.0 mi ESE 8.1 mph - N/A   Clear
2:34 AM 15.8 °F 5.1 °F 10.4 °F 79% 30.07 in 10.0 mi ESE 8.1 mph - N/A   Clear
2:55 AM 15.8 °F 7.2 °F 8.6 °F 73% 30.07 in 10.0 mi SE 5.8 mph - N/A   Clear
3:15 AM 14.0 °F 5.1 °F 8.6 °F 79% 30.07 in 10.0 mi SE 5.8 mph - N/A   Clear
3:35 AM 14.0 °F 5.1 °F 8.6 °F 79% 30.07 in 10.0 mi SE 5.8 mph - N/A   Clear
3:56 AM 15.8 °F 5.1 °F 10.4 °F 79% 30.06 in 10.0 mi SE 8.1 mph - N/A   Scattered Clouds
4:15 AM 17.6 °F 8.2 °F 12.2 °F 79% 30.05 in 10.0 mi SE 6.9 mph - N/A   Mostly Cloudy
4:35 AM 19.4 °F 10.4 °F 12.2 °F 74% 30.04 in 10.0 mi SE 6.9 mph - N/A   Mostly Cloudy
4:56 AM 19.4 °F 8.6 °F 12.2 °F 74% 30.03 in 10.0 mi SE 9.2 mph - N/A   Overcast
5:15 AM 21.2 °F 10.9 °F 14.0 °F 74% 30.02 in 10.0 mi SE 9.2 mph - N/A   Overcast
5:35 AM 21.2 °F 10.9 °F 14.0 °F 74% 30.01 in 10.0 mi SE 9.2 mph - N/A   Overcast
5:56 AM 21.2 °F 10.1 °F 14.0 °F 74% 30.00 in 10.0 mi SE 10.4 mph - N/A   Overcast
6:15 AM 21.2 °F 9.5 °F 12.2 °F 68% 30.00 in 10.0 mi SE 11.5 mph - N/A   Overcast
6:35 AM 21.2 °F 8.3 °F 14.0 °F 74% 29.99 in 10.0 mi SE 13.8 mph - N/A   Overcast
6:56 AM 23.0 °F 11.1 °F 14.0 °F 68% 29.99 in 10.0 mi SE 12.7 mph - N/A   Overcast
7:15 AM 23.0 °F 10.6 °F 14.0 °F 68% 29.98 in 10.0 mi SE 13.8 mph - N/A   Overcast
7:35 AM 23.0 °F 10.1 °F 14.0 °F 68% 29.97 in 10.0 mi SE 15.0 mph - N/A   Overcast
7:56 AM 24.8 °F 12.4 °F 14.0 °F 64% 29.95 in 10.0 mi SE 15.0 mph - N/A   Mostly Cloudy
8:15 AM 24.8 °F 12.9 °F 14.0 °F 64% 29.94 in 10.0 mi SE 13.8 mph - N/A   Scattered Clouds
8:36 AM 24.8 °F 11.5 °F 12.2 °F 59% 29.93 in 10.0 mi SE 17.3 mph 24.2 mph N/A   Clear
8:55 AM 26.6 °F 13.1 °F 12.2 °F 55% 29.92 in 10.0 mi SE 19.6 mph 23.0 mph N/A   Clear
9:16 AM 26.6 °F 13.1 °F 12.2 °F 55% 29.89 in 10.0 mi SE 19.6 mph 25.3 mph N/A   Clear
9:35 AM 28.4 °F 15.1 °F 14.0 °F 55% 29.89 in 10.0 mi SE 20.7 mph 26.5 mph N/A   Clear
9:56 AM 28.4 °F 14.4 °F 14.0 °F 55% 29.88 in 10.0 mi SE 23.0 mph 28.8 mph N/A   Clear
10:15 AM 30.2 °F 17.8 °F 14.0 °F 51% 29.87 in 10.0 mi SE 19.6 mph 29.9 mph N/A   Clear
10:36 AM 32.0 °F 19.2 °F 14.0 °F 48% 29.86 in 10.0 mi SE 23.0 mph 28.8 mph N/A   Clear
10:55 AM 33.8 °F 21.6 °F 15.8 °F 48% 29.83 in 10.0 mi SE 23.0 mph 28.8 mph N/A   Clear
11:16 AM 35.6 °F 24.0 °F 15.8 °F 44% 29.82 in 10.0 mi SSE 23.0 mph 32.2 mph N/A   Clear
11:35 AM 35.6 °F 23.2 °F 15.8 °F 44% 29.79 in 10.0 mi SE 26.5 mph 32.2 mph N/A   Clear
11:56 AM 37.4 °F 25.2 °F 15.8 °F 41% 29.78 in 10.0 mi SE 28.8 mph 33.4 mph N/A   Clear
12:15 PM 37.4 °F 25.2 °F 17.6 °F 45% 29.77 in 10.0 mi SSE 28.8 mph 35.7 mph N/A   Clear
12:36 PM 39.2 °F 27.6 °F 17.6 °F 42% 29.76 in 10.0 mi SSE 28.8 mph 36.8 mph N/A   Clear
12:55 PM 39.2 °F 28.0 °F 17.6 °F 42% 29.75 in 10.0 mi SSE 26.5 mph 35.7 mph N/A   Clear
1:16 PM 41.0 °F 30.9 °F 19.4 °F 42% 29.72 in 10.0 mi SSE 24.2 mph 34.5 mph N/A   Clear
1:35 PM 42.8 °F 32.7 °F 19.4 °F 39% 29.70 in 10.0 mi SSE 27.6 mph 39.1 mph N/A   Clear
1:56 PM 44.6 °F 34.7 °F 21.2 °F 39% 29.68 in 10.0 mi SSE 29.9 mph 36.8 mph N/A   Clear
2:15 PM 44.6 °F 35.3 °F 21.2 °F 39% 29.66 in 10.0 mi SSE 26.5 mph 33.4 mph N/A   Clear
2:36 PM 46.4 °F 37.5 °F 23.0 °F 40% 29.65 in 10.0 mi SSE 27.6 mph 35.7 mph N/A   Clear
2:55 PM 46.4 °F 38.3 °F 24.8 °F 43% 29.64 in 10.0 mi SSE 23.0 mph 34.5 mph N/A   Clear
3:16 PM 46.4 °F 38.5 °F 24.8 °F 43% 29.63 in 10.0 mi SSE 21.9 mph 29.9 mph N/A   Clear
3:35 PM 48.2 °F - 24.8 °F 40% 29.62 in 10.0 mi SSE 25.3 mph 29.9 mph N/A   Clear
3:56 PM 48.2 °F - 26.6 °F 43% 29.61 in 10.0 mi SE 23.0 mph 31.1 mph N/A   Clear
4:15 PM 48.2 °F - 26.6 °F 43% 29.59 in 10.0 mi SE 23.0 mph 32.2 mph N/A   Clear
4:36 PM 48.2 °F - 28.4 °F 46% 29.58 in 10.0 mi SE 28.8 mph 34.5 mph N/A   Clear
4:55 PM 48.2 °F - 28.4 °F 46% 29.57 in 10.0 mi SE 25.3 mph 32.2 mph N/A   Clear
5:16 PM 46.4 °F 38.5 °F 28.4 °F 50% 29.56 in 10.0 mi SE 21.9 mph 34.5 mph N/A   Clear
5:35 PM 48.2 °F - 28.4 °F 46% 29.55 in 10.0 mi SE 23.0 mph 32.2 mph N/A   Clear
5:56 PM 46.4 °F 38.3 °F 28.4 °F 50% 29.54 in 10.0 mi SE 23.0 mph 31.1 mph N/A   Clear
6:15 PM 46.4 °F 38.3 °F 30.2 °F 53% 29.54 in 10.0 mi SE 23.0 mph 31.1 mph N/A   Clear
6:36 PM 44.6 °F 37.2 °F 30.2 °F 57% 29.53 in 10.0 mi SE 17.3 mph 31.1 mph N/A   Clear
6:55 PM 44.6 °F 36.9 °F 30.2 °F 57% 29.52 in 10.0 mi ESE 18.4 mph 25.3 mph N/A   Clear
7:16 PM 42.8 °F 33.8 °F 28.4 °F 57% 29.50 in 10.0 mi ESE 21.9 mph - N/A   Clear
7:35 PM 42.8 °F 33.5 °F 28.4 °F 57% 29.50 in 10.0 mi ESE 23.0 mph 27.6 mph N/A   Clear
7:56 PM 42.8 °F 33.8 °F 28.4 °F 57% 29.48 in 10.0 mi SE 21.9 mph 28.8 mph N/A   Clear
8:15 PM 41.0 °F 31.1 °F 28.4 °F 61% 29.48 in 10.0 mi ESE 23.0 mph 32.2 mph N/A   Clear
8:36 PM 39.2 °F 29.6 °F 28.4 °F 65% 29.47 in 10.0 mi ESE 19.6 mph - N/A   Clear
8:55 PM 39.2 °F 29.0 °F 28.4 °F 65% 29.47 in 10.0 mi ESE 21.9 mph 26.5 mph N/A   Clear
9:16 PM 39.2 °F 29.0 °F 26.6 °F 61% 29.47 in 10.0 mi ESE 21.9 mph 27.6 mph N/A   Clear
9:35 PM 39.2 °F 29.3 °F 26.6 °F 61% 29.47 in 10.0 mi ESE 20.7 mph 25.3 mph N/A   Clear
9:56 PM 39.2 °F 29.8 °F 26.6 °F 61% 29.47 in 10.0 mi ESE 18.4 mph - N/A   Clear
10:15 PM 39.2 °F 30.2 °F 28.4 °F 65% 29.47 in 10.0 mi SE 17.3 mph - N/A   Clear
10:35 PM 37.4 °F 27.8 °F 28.4 °F 70% 29.47 in 10.0 mi SE 17.3 mph - N/A   Clear
10:55 PM 37.4 °F 28.9 °F 28.4 °F 70% 29.47 in 10.0 mi SE 13.8 mph - N/A   Clear
11:15 PM 37.4 °F 28.9 °F 28.4 °F 70% 29.47 in 10.0 mi SE 13.8 mph - N/A   Clear
11:36 PM 37.4 °F 29.3 °F 30.2 °F 75% 29.47 in 10.0 mi SE 12.7 mph - N/A   Scattered Clouds
11:55 PM 39.2 °F 31.2 °F 30.2 °F 70% 29.46 in 10.0 mi SE 13.8 mph - N/A   Mostly Cloudy